sensor_id;sensor_type;location;lat;lon;timestamp;temperature;humidity
23497;DHT22;11925;48.122;11.560;2023-04-15T00:00:56;10.60;99.90
23497;DHT22;11925;48.122;11.560;2023-04-15T00:03:26;10.60;99.90
23497;DHT22;11925;48.122;11.560;2023-04-15T00:05:54;10.60;99.90
23497;DHT22;11925;48.122;11.560;2023-04-15T00:08:23;10.60;99.90
23497;DHT22;11925;48.122;11.560;2023-04-15T00:10:52;10.60;99.90
23497;DHT22;11925;48.122;11.560;2023-04-15T00:13:22;10.60;99.90
23497;DHT22;11925;48.122;11.560;2023-04-15T00:15:50;10.50;99.90
23497;DHT22;11925;48.122;11.560;2023-04-15T00:18:18;10.60;99.90
23497;DHT22;11925;48.122;11.560;2023-04-15T00:20:46;10.50;99.90
23497;DHT22;11925;48.122;11.560;2023-04-15T00:23:15;10.60;99.90
23497;DHT22;11925;48.122;11.560;2023-04-15T00:25:44;10.60;99.90
23497;DHT22;11925;48.122;11.560;2023-04-15T00:28:12;10.40;99.90
23497;DHT22;11925;48.122;11.560;2023-04-15T00:30:43;10.60;99.90
23497;DHT22;11925;48.122;11.560;2023-04-15T00:33:12;10.70;99.90
23497;DHT22;11925;48.122;11.560;2023-04-15T00:35:40;10.60;99.90
23497;DHT22;11925;48.122;11.560;2023-04-15T00:38:09;10.70;99.90
23497;DHT22;11925;48.122;11.560;2023-04-15T00:40:37;10.60;99.90
23497;DHT22;11925;48.122;11.560;2023-04-15T00:43:06;10.60;99.90
23497;DHT22;11925;48.122;11.560;2023-04-15T00:45:34;10.70;99.90
23497;DHT22;11925;48.122;11.560;2023-04-15T00:48:04;10.70;99.90
23497;DHT22;11925;48.122;11.560;2023-04-15T00:50:33;10.70;99.90
23497;DHT22;11925;48.122;11.560;2023-04-15T00:53:01;10.70;99.90
23497;DHT22;11925;48.122;11.560;2023-04-15T00:55:30;10.70;99.90
23497;DHT22;11925;48.122;11.560;2023-04-15T00:57:59;10.70;99.90
23497;DHT22;11925;48.122;11.560;2023-04-15T01:00:28;10.70;99.90
23497;DHT22;11925;48.122;11.560;2023-04-15T01:02:57;10.60;99.90
23497;DHT22;11925;48.122;11.560;2023-04-15T01:05:28;10.80;99.90
23497;DHT22;11925;48.122;11.560;2023-04-15T01:07:57;10.70;99.90
23497;DHT22;11925;48.122;11.560;2023-04-15T01:10:25;10.60;99.90
23497;DHT22;11925;48.122;11.560;2023-04-15T01:12:54;10.70;99.90
23497;DHT22;11925;48.122;11.560;2023-04-15T01:15:24;10.70;99.90
23497;DHT22;11925;48.122;11.560;2023-04-15T01:17:53;10.60;99.90
23497;DHT22;11925;48.122;11.560;2023-04-15T01:20:22;10.60;99.90
23497;DHT22;11925;48.122;11.560;2023-04-15T01:22:53;10.60;99.90
23497;DHT22;11925;48.122;11.560;2023-04-15T01:25:30;10.60;99.90
23497;DHT22;11925;48.122;11.560;2023-04-15T01:27:59;10.60;99.90
23497;DHT22;11925;48.122;11.560;2023-04-15T01:30:28;10.60;99.90
23497;DHT22;11925;48.122;11.560;2023-04-15T01:33:00;10.50;99.90
23497;DHT22;11925;48.122;11.560;2023-04-15T01:35:29;10.60;99.90
23497;DHT22;11925;48.122;11.560;2023-04-15T01:38:02;10.60;99.90
23497;DHT22;11925;48.122;11.560;2023-04-15T01:40:33;10.60;99.90
23497;DHT22;11925;48.122;11.560;2023-04-15T01:43:02;10.60;99.90
23497;DHT22;11925;48.122;11.560;2023-04-15T01:45:30;10.60;99.90
23497;DHT22;11925;48.122;11.560;2023-04-15T01:47:59;10.50;99.90
23497;DHT22;11925;48.122;11.560;2023-04-15T01:50:27;10.60;99.90
23497;DHT22;11925;48.122;11.560;2023-04-15T01:52:56;10.60;99.90
23497;DHT22;11925;48.122;11.560;2023-04-15T01:55:24;10.60;99.90
23497;DHT22;11925;48.122;11.560;2023-04-15T01:57:54;10.60;99.90
23497;DHT22;11925;48.122;11.560;2023-04-15T02:00:22;10.60;99.80
23497;DHT22;11925;48.122;11.560;2023-04-15T02:02:51;10.60;99.90
23497;DHT22;11925;48.122;11.560;2023-04-15T02:05:19;10.60;99.80
23497;DHT22;11925;48.122;11.560;2023-04-15T02:07:48;10.60;99.80
23497;DHT22;11925;48.122;11.560;2023-04-15T02:10:17;10.60;99.80
23497;DHT22;11925;48.122;11.560;2023-04-15T02:12:45;10.50;99.80
23497;DHT22;11925;48.122;11.560;2023-04-15T02:15:15;10.60;99.80
23497;DHT22;11925;48.122;11.560;2023-04-15T02:17:43;10.60;99.70
23497;DHT22;11925;48.122;11.560;2023-04-15T02:20:18;10.60;99.70
23497;DHT22;11925;48.122;11.560;2023-04-15T02:22:47;10.60;99.70
23497;DHT22;11925;48.122;11.560;2023-04-15T02:25:15;10.60;99.60
23497;DHT22;11925;48.122;11.560;2023-04-15T02:27:44;10.60;99.60
23497;DHT22;11925;48.122;11.560;2023-04-15T02:30:12;10.60;99.50
23497;DHT22;11925;48.122;11.560;2023-04-15T02:32:42;10.60;99.50
23497;DHT22;11925;48.122;11.560;2023-04-15T02:35:11;10.50;99.40
23497;DHT22;11925;48.122;11.560;2023-04-15T02:37:40;10.50;99.40
23497;DHT22;11925;48.122;11.560;2023-04-15T02:40:12;10.50;99.40
23497;DHT22;11925;48.122;11.560;2023-04-15T02:42:41;10.50;99.40
23497;DHT22;11925;48.122;11.560;2023-04-15T02:45:12;10.60;99.40
23497;DHT22;11925;48.122;11.560;2023-04-15T02:47:42;10.50;99.30
23497;DHT22;11925;48.122;11.560;2023-04-15T02:50:12;10.50;99.20
23497;DHT22;11925;48.122;11.560;2023-04-15T02:52:42;10.50;99.10
23497;DHT22;11925;48.122;11.560;2023-04-15T02:55:10;10.50;99.10
23497;DHT22;11925;48.122;11.560;2023-04-15T02:57:39;10.50;99.10
23497;DHT22;11925;48.122;11.560;2023-04-15T03:00:10;10.50;99.00
23497;DHT22;11925;48.122;11.560;2023-04-15T03:02:44;10.50;99.00
23497;DHT22;11925;48.122;11.560;2023-04-15T03:05:13;10.50;99.00
23497;DHT22;11925;48.122;11.560;2023-04-15T03:07:51;10.50;98.90
23497;DHT22;11925;48.122;11.560;2023-04-15T03:10:20;10.50;98.90
23497;DHT22;11925;48.122;11.560;2023-04-15T03:12:48;10.50;98.80
23497;DHT22;11925;48.122;11.560;2023-04-15T03:15:20;10.50;98.70
23497;DHT22;11925;48.122;11.560;2023-04-15T03:17:52;10.50;98.70
23497;DHT22;11925;48.122;11.560;2023-04-15T03:20:21;10.50;98.80
23497;DHT22;11925;48.122;11.560;2023-04-15T03:22:49;10.50;98.70
23497;DHT22;11925;48.122;11.560;2023-04-15T03:25:19;10.40;98.60
23497;DHT22;11925;48.122;11.560;2023-04-15T03:27:48;10.50;98.60
23497;DHT22;11925;48.122;11.560;2023-04-15T03:30:17;10.70;98.70
23497;DHT22;11925;48.122;11.560;2023-04-15T03:32:45;10.50;98.60
23497;DHT22;11925;48.122;11.560;2023-04-15T03:35:15;10.50;98.60
23497;DHT22;11925;48.122;11.560;2023-04-15T03:37:44;10.50;98.50
23497;DHT22;11925;48.122;11.560;2023-04-15T03:40:12;10.50;98.60
23497;DHT22;11925;48.122;11.560;2023-04-15T03:42:40;10.50;98.50
23497;DHT22;11925;48.122;11.560;2023-04-15T03:45:10;10.40;98.40
23497;DHT22;11925;48.122;11.560;2023-04-15T03:47:38;10.50;98.50
23497;DHT22;11925;48.122;11.560;2023-04-15T03:50:07;10.40;98.50
23497;DHT22;11925;48.122;11.560;2023-04-15T03:52:37;10.50;98.50
23497;DHT22;11925;48.122;11.560;2023-04-15T03:55:05;10.50;98.40
23497;DHT22;11925;48.122;11.560;2023-04-15T03:57:34;10.50;98.40
23497;DHT22;11925;48.122;11.560;2023-04-15T04:00:06;10.50;98.40
23497;DHT22;11925;48.122;11.560;2023-04-15T04:02:38;10.40;98.40
23497;DHT22;11925;48.122;11.560;2023-04-15T04:05:07;10.40;98.30
23497;DHT22;11925;48.122;11.560;2023-04-15T04:07:37;10.40;98.20
23497;DHT22;11925;48.122;11.560;2023-04-15T04:10:07;10.40;98.20
23497;DHT22;11925;48.122;11.560;2023-04-15T04:12:35;10.40;98.20
23497;DHT22;11925;48.122;11.560;2023-04-15T04:15:04;10.40;98.10
23497;DHT22;11925;48.122;11.560;2023-04-15T04:17:33;10.40;98.10
23497;DHT22;11925;48.122;11.560;2023-04-15T04:20:02;10.40;98.00
23497;DHT22;11925;48.122;11.560;2023-04-15T04:22:38;10.40;97.90
23497;DHT22;11925;48.122;11.560;2023-04-15T04:25:07;10.40;97.90
23497;DHT22;11925;48.122;11.560;2023-04-15T04:27:37;10.40;97.90
23497;DHT22;11925;48.122;11.560;2023-04-15T04:30:06;10.40;97.90
23497;DHT22;11925;48.122;11.560;2023-04-15T04:32:35;10.40;97.90
23497;DHT22;11925;48.122;11.560;2023-04-15T04:35:03;10.40;97.80
23497;DHT22;11925;48.122;11.560;2023-04-15T04:37:33;10.40;97.90
23497;DHT22;11925;48.122;11.560;2023-04-15T04:40:03;10.50;97.90
23497;DHT22;11925;48.122;11.560;2023-04-15T04:42:31;10.40;97.90
23497;DHT22;11925;48.122;11.560;2023-04-15T04:45:00;10.40;97.90
23497;DHT22;11925;48.122;11.560;2023-04-15T04:47:28;10.50;97.90
23497;DHT22;11925;48.122;11.560;2023-04-15T04:49:57;10.40;97.90
23497;DHT22;11925;48.122;11.560;2023-04-15T04:52:25;10.40;97.90
23497;DHT22;11925;48.122;11.560;2023-04-15T04:54:53;10.40;97.80
23497;DHT22;11925;48.122;11.560;2023-04-15T04:57:23;10.40;97.70
23497;DHT22;11925;48.122;11.560;2023-04-15T04:59:51;10.40;97.70
23497;DHT22;11925;48.122;11.560;2023-04-15T05:02:20;10.40;97.70
23497;DHT22;11925;48.122;11.560;2023-04-15T05:04:48;10.40;97.70
23497;DHT22;11925;48.122;11.560;2023-04-15T05:07:21;10.50;97.60
23497;DHT22;11925;48.122;11.560;2023-04-15T05:09:50;10.40;97.50
23497;DHT22;11925;48.122;11.560;2023-04-15T05:12:18;10.40;97.40
23497;DHT22;11925;48.122;11.560;2023-04-15T05:14:48;10.40;97.30
23497;DHT22;11925;48.122;11.560;2023-04-15T05:17:16;10.40;97.30
23497;DHT22;11925;48.122;11.560;2023-04-15T05:19:44;10.40;97.30
23497;DHT22;11925;48.122;11.560;2023-04-15T05:24:41;10.40;96.80
23497;DHT22;11925;48.122;11.560;2023-04-15T05:27:10;10.40;97.10
23497;DHT22;11925;48.122;11.560;2023-04-15T05:29:38;10.40;97.20
23497;DHT22;11925;48.122;11.560;2023-04-15T05:32:08;10.40;97.00
23497;DHT22;11925;48.122;11.560;2023-04-15T05:34:36;10.40;96.80
23497;DHT22;11925;48.122;11.560;2023-04-15T05:37:04;10.40;96.70
23497;DHT22;11925;48.122;11.560;2023-04-15T05:39:33;10.40;96.60
23497;DHT22;11925;48.122;11.560;2023-04-15T05:42:01;10.40;96.10
23497;DHT22;11925;48.122;11.560;2023-04-15T05:44:31;10.40;96.30
23497;DHT22;11925;48.122;11.560;2023-04-15T05:47:00;10.40;96.20
23497;DHT22;11925;48.122;11.560;2023-04-15T05:49:30;10.40;96.10
23497;DHT22;11925;48.122;11.560;2023-04-15T05:51:59;10.40;96.10
23497;DHT22;11925;48.122;11.560;2023-04-15T05:54:27;10.40;95.60
23497;DHT22;11925;48.122;11.560;2023-04-15T05:56:55;10.40;95.90
23497;DHT22;11925;48.122;11.560;2023-04-15T05:59:24;10.40;95.70
23497;DHT22;11925;48.122;11.560;2023-04-15T06:01:54;10.40;95.80
23497;DHT22;11925;48.122;11.560;2023-04-15T06:04:23;10.40;95.80
23497;DHT22;11925;48.122;11.560;2023-04-15T06:06:53;10.40;95.60
23497;DHT22;11925;48.122;11.560;2023-04-15T06:09:21;10.40;95.60
23497;DHT22;11925;48.122;11.560;2023-04-15T06:11:50;10.40;95.50
23497;DHT22;11925;48.122;11.560;2023-04-15T06:14:19;10.40;95.50
23497;DHT22;11925;48.122;11.560;2023-04-15T06:16:47;10.50;95.40
23497;DHT22;11925;48.122;11.560;2023-04-15T06:19:15;10.50;95.30
23497;DHT22;11925;48.122;11.560;2023-04-15T06:21:44;10.40;95.30
23497;DHT22;11925;48.122;11.560;2023-04-15T06:24:14;10.50;95.40
23497;DHT22;11925;48.122;11.560;2023-04-15T06:26:42;10.50;95.20
23497;DHT22;11925;48.122;11.560;2023-04-15T06:29:10;10.40;95.00
23497;DHT22;11925;48.122;11.560;2023-04-15T06:31:39;10.40;95.30
23497;DHT22;11925;48.122;11.560;2023-04-15T06:34:07;10.50;94.80
23497;DHT22;11925;48.122;11.560;2023-04-15T06:36:35;10.40;94.70
23497;DHT22;11925;48.122;11.560;2023-04-15T06:39:04;10.50;94.70
23497;DHT22;11925;48.122;11.560;2023-04-15T06:41:34;10.50;94.70
23497;DHT22;11925;48.122;11.560;2023-04-15T06:44:03;10.50;94.60
23497;DHT22;11925;48.122;11.560;2023-04-15T06:46:31;10.50;94.50
23497;DHT22;11925;48.122;11.560;2023-04-15T06:49:00;10.50;94.40
23497;DHT22;11925;48.122;11.560;2023-04-15T06:51:29;10.50;94.50
23497;DHT22;11925;48.122;11.560;2023-04-15T06:53:58;10.50;94.40
23497;DHT22;11925;48.122;11.560;2023-04-15T06:56:28;10.50;94.40
23497;DHT22;11925;48.122;11.560;2023-04-15T06:58:58;10.50;94.20
23497;DHT22;11925;48.122;11.560;2023-04-15T07:01:26;10.50;94.00
23497;DHT22;11925;48.122;11.560;2023-04-15T07:03:55;10.50;93.90
23497;DHT22;11925;48.122;11.560;2023-04-15T07:06:23;10.50;94.00
23497;DHT22;11925;48.122;11.560;2023-04-15T07:08:52;10.50;93.80
23497;DHT22;11925;48.122;11.560;2023-04-15T07:11:21;10.50;93.60
23497;DHT22;11925;48.122;11.560;2023-04-15T07:13:49;10.50;93.50
23497;DHT22;11925;48.122;11.560;2023-04-15T07:16:19;10.50;93.50
23497;DHT22;11925;48.122;11.560;2023-04-15T07:18:48;10.50;93.40
23497;DHT22;11925;48.122;11.560;2023-04-15T07:21:17;10.50;93.50
23497;DHT22;11925;48.122;11.560;2023-04-15T07:23:45;10.50;93.30
23497;DHT22;11925;48.122;11.560;2023-04-15T07:26:13;10.50;93.30
23497;DHT22;11925;48.122;11.560;2023-04-15T07:28:41;10.50;93.20
23497;DHT22;11925;48.122;11.560;2023-04-15T07:31:10;10.50;93.10
23497;DHT22;11925;48.122;11.560;2023-04-15T07:33:39;10.50;93.20
23497;DHT22;11925;48.122;11.560;2023-04-15T07:36:09;10.50;93.10
23497;DHT22;11925;48.122;11.560;2023-04-15T07:38:37;10.50;93.00
23497;DHT22;11925;48.122;11.560;2023-04-15T07:41:06;10.50;93.10
23497;DHT22;11925;48.122;11.560;2023-04-15T07:43:35;10.50;92.60
23497;DHT22;11925;48.122;11.560;2023-04-15T07:46:03;10.50;92.60
23497;DHT22;11925;48.122;11.560;2023-04-15T07:48:32;10.50;92.60
23497;DHT22;11925;48.122;11.560;2023-04-15T07:51:05;10.50;92.60
23497;DHT22;11925;48.122;11.560;2023-04-15T07:53:34;10.50;92.50
23497;DHT22;11925;48.122;11.560;2023-04-15T07:56:03;10.50;92.40
23497;DHT22;11925;48.122;11.560;2023-04-15T07:58:32;10.50;92.50
23497;DHT22;11925;48.122;11.560;2023-04-15T08:01:00;10.50;92.60
23497;DHT22;11925;48.122;11.560;2023-04-15T08:03:29;10.50;92.20
23497;DHT22;11925;48.122;11.560;2023-04-15T08:05:57;10.60;92.20
23497;DHT22;11925;48.122;11.560;2023-04-15T08:08:27;10.50;92.00
23497;DHT22;11925;48.122;11.560;2023-04-15T08:10:56;10.60;91.90
23497;DHT22;11925;48.122;11.560;2023-04-15T08:13:25;10.50;92.00
23497;DHT22;11925;48.122;11.560;2023-04-15T08:16:18;10.60;91.70
23497;DHT22;11925;48.122;11.560;2023-04-15T08:18:47;10.50;91.80
23497;DHT22;11925;48.122;11.560;2023-04-15T08:21:16;10.50;91.90
23497;DHT22;11925;48.122;11.560;2023-04-15T08:23:48;10.50;91.50
23497;DHT22;11925;48.122;11.560;2023-04-15T08:26:17;10.60;91.30
23497;DHT22;11925;48.122;11.560;2023-04-15T08:28:45;10.60;91.40
23497;DHT22;11925;48.122;11.560;2023-04-15T08:31:15;10.70;91.20
23497;DHT22;11925;48.122;11.560;2023-04-15T08:33:44;10.70;91.40
23497;DHT22;11925;48.122;11.560;2023-04-15T08:36:12;10.60;91.30
23497;DHT22;11925;48.122;11.560;2023-04-15T08:38:43;10.60;91.40
23497;DHT22;11925;48.122;11.560;2023-04-15T08:41:19;10.60;91.40
23497;DHT22;11925;48.122;11.560;2023-04-15T08:43:52;10.60;91.20
23497;DHT22;11925;48.122;11.560;2023-04-15T08:46:21;10.70;91.30
23497;DHT22;11925;48.122;11.560;2023-04-15T08:48:50;10.60;91.40
23497;DHT22;11925;48.122;11.560;2023-04-15T08:51:19;10.80;91.30
23497;DHT22;11925;48.122;11.560;2023-04-15T08:53:50;10.70;91.30
23497;DHT22;11925;48.122;11.560;2023-04-15T08:56:24;10.70;91.30
23497;DHT22;11925;48.122;11.560;2023-04-15T08:58:53;10.60;91.40
23497;DHT22;11925;48.122;11.560;2023-04-15T09:01:22;10.70;91.20
23497;DHT22;11925;48.122;11.560;2023-04-15T09:03:51;10.70;91.40
23497;DHT22;11925;48.122;11.560;2023-04-15T09:06:20;10.70;91.60
23497;DHT22;11925;48.122;11.560;2023-04-15T09:08:49;10.70;91.40
23497;DHT22;11925;48.122;11.560;2023-04-15T09:11:20;10.80;91.20
23497;DHT22;11925;48.122;11.560;2023-04-15T09:13:49;10.70;91.40
23497;DHT22;11925;48.122;11.560;2023-04-15T09:16:18;10.70;91.30
23497;DHT22;11925;48.122;11.560;2023-04-15T09:18:46;10.70;91.20
23497;DHT22;11925;48.122;11.560;2023-04-15T09:21:16;10.70;91.20
23497;DHT22;11925;48.122;11.560;2023-04-15T09:23:55;10.70;91.40
23497;DHT22;11925;48.122;11.560;2023-04-15T09:26:36;10.80;91.20
23497;DHT22;11925;48.122;11.560;2023-04-15T09:29:07;10.80;91.20
23497;DHT22;11925;48.122;11.560;2023-04-15T09:31:36;10.80;91.20
23497;DHT22;11925;48.122;11.560;2023-04-15T09:34:04;10.80;91.00
23497;DHT22;11925;48.122;11.560;2023-04-15T09:36:51;10.80;91.00
23497;DHT22;11925;48.122;11.560;2023-04-15T09:39:20;10.80;91.10
23497;DHT22;11925;48.122;11.560;2023-04-15T09:44:42;10.80;91.00
23497;DHT22;11925;48.122;11.560;2023-04-15T09:47:26;10.80;91.20
23497;DHT22;11925;48.122;11.560;2023-04-15T09:49:55;10.80;91.20
23497;DHT22;11925;48.122;11.560;2023-04-15T09:52:24;10.80;91.00
23497;DHT22;11925;48.122;11.560;2023-04-15T09:54:53;10.80;91.00
23497;DHT22;11925;48.122;11.560;2023-04-15T09:57:22;10.80;91.10
23497;DHT22;11925;48.122;11.560;2023-04-15T09:59:52;10.80;91.10
23497;DHT22;11925;48.122;11.560;2023-04-15T10:02:21;10.80;91.10
23497;DHT22;11925;48.122;11.560;2023-04-15T10:04:51;10.80;91.10
23497;DHT22;11925;48.122;11.560;2023-04-15T10:07:20;10.80;90.90
23497;DHT22;11925;48.122;11.560;2023-04-15T10:09:49;10.80;90.60
23497;DHT22;11925;48.122;11.560;2023-04-15T10:12:19;10.80;90.60
23497;DHT22;11925;48.122;11.560;2023-04-15T10:14:52;10.80;90.50
23497;DHT22;11925;48.122;11.560;2023-04-15T10:17:22;10.80;90.50
23497;DHT22;11925;48.122;11.560;2023-04-15T10:19:53;10.70;90.30
23497;DHT22;11925;48.122;11.560;2023-04-15T10:22:22;10.80;90.30
23497;DHT22;11925;48.122;11.560;2023-04-15T10:24:50;10.80;90.30
23497;DHT22;11925;48.122;11.560;2023-04-15T10:27:20;10.80;90.40
23497;DHT22;11925;48.122;11.560;2023-04-15T10:29:49;10.80;90.50
23497;DHT22;11925;48.122;11.560;2023-04-15T10:32:20;10.80;90.50
23497;DHT22;11925;48.122;11.560;2023-04-15T10:34:50;10.80;90.50
23497;DHT22;11925;48.122;11.560;2023-04-15T10:37:21;10.90;90.50
23497;DHT22;11925;48.122;11.560;2023-04-15T10:39:50;11.20;90.70
23497;DHT22;11925;48.122;11.560;2023-04-15T10:42:18;10.90;90.70
23497;DHT22;11925;48.122;11.560;2023-04-15T10:44:48;10.80;90.60
23497;DHT22;11925;48.122;11.560;2023-04-15T10:47:20;10.90;90.70
23497;DHT22;11925;48.122;11.560;2023-04-15T10:49:50;10.80;90.70
23497;DHT22;11925;48.122;11.560;2023-04-15T10:52:22;10.80;90.60
23497;DHT22;11925;48.122;11.560;2023-04-15T10:55:01;10.80;90.60
23497;DHT22;11925;48.122;11.560;2023-04-15T10:57:34;10.80;90.50
23497;DHT22;11925;48.122;11.560;2023-04-15T11:00:12;10.90;90.60
23497;DHT22;11925;48.122;11.560;2023-04-15T11:02:44;10.90;90.50
23497;DHT22;11925;48.122;11.560;2023-04-15T11:05:14;10.80;90.60
23497;DHT22;11925;48.122;11.560;2023-04-15T11:07:52;10.80;90.60
23497;DHT22;11925;48.122;11.560;2023-04-15T11:10:51;10.80;90.70
23497;DHT22;11925;48.122;11.560;2023-04-15T11:13:26;10.80;90.60
23497;DHT22;11925;48.122;11.560;2023-04-15T11:15:59;10.80;90.70
23497;DHT22;11925;48.122;11.560;2023-04-15T11:18:31;10.80;90.60
23497;DHT22;11925;48.122;11.560;2023-04-15T11:21:02;10.80;90.40
23497;DHT22;11925;48.122;11.560;2023-04-15T11:23:36;10.80;90.50
23497;DHT22;11925;48.122;11.560;2023-04-15T11:26:06;10.80;90.40
23497;DHT22;11925;48.122;11.560;2023-04-15T11:28:39;10.80;90.40
23497;DHT22;11925;48.122;11.560;2023-04-15T11:31:09;10.80;90.50
23497;DHT22;11925;48.122;11.560;2023-04-15T11:33:44;10.80;90.40
23497;DHT22;11925;48.122;11.560;2023-04-15T11:36:13;10.80;90.40
23497;DHT22;11925;48.122;11.560;2023-04-15T11:38:42;10.80;90.50
23497;DHT22;11925;48.122;11.560;2023-04-15T11:41:12;10.80;90.70
23497;DHT22;11925;48.122;11.560;2023-04-15T11:43:40;10.80;91.10
23497;DHT22;11925;48.122;11.560;2023-04-15T11:46:08;10.90;91.40
23497;DHT22;11925;48.122;11.560;2023-04-15T11:48:42;10.90;91.50
23497;DHT22;11925;48.122;11.560;2023-04-15T11:51:12;10.90;91.70
23497;DHT22;11925;48.122;11.560;2023-04-15T11:53:43;10.90;91.80
23497;DHT22;11925;48.122;11.560;2023-04-15T11:56:17;10.90;91.90
23497;DHT22;11925;48.122;11.560;2023-04-15T11:58:46;10.90;92.00
23497;DHT22;11925;48.122;11.560;2023-04-15T12:01:17;11.00;91.80
23497;DHT22;11925;48.122;11.560;2023-04-15T12:03:47;10.90;91.90
23497;DHT22;11925;48.122;11.560;2023-04-15T12:06:17;10.90;91.90
23497;DHT22;11925;48.122;11.560;2023-04-15T12:09:08;10.90;92.00
23497;DHT22;11925;48.122;11.560;2023-04-15T12:11:42;11.00;92.20
23497;DHT22;11925;48.122;11.560;2023-04-15T12:14:19;10.90;92.20
23497;DHT22;11925;48.122;11.560;2023-04-15T12:16:51;10.90;92.20
23497;DHT22;11925;48.122;11.560;2023-04-15T12:19:26;10.90;92.10
23497;DHT22;11925;48.122;11.560;2023-04-15T12:21:58;10.90;92.00
23497;DHT22;11925;48.122;11.560;2023-04-15T12:24:28;10.90;91.90
23497;DHT22;11925;48.122;11.560;2023-04-15T12:27:01;10.90;91.80
23497;DHT22;11925;48.122;11.560;2023-04-15T12:29:29;10.90;91.50
23497;DHT22;11925;48.122;11.560;2023-04-15T12:32:04;10.90;91.60
23497;DHT22;11925;48.122;11.560;2023-04-15T12:34:35;11.00;91.50
23497;DHT22;11925;48.122;11.560;2023-04-15T12:37:05;10.90;91.40
23497;DHT22;11925;48.122;11.560;2023-04-15T12:39:36;11.00;91.50
23497;DHT22;11925;48.122;11.560;2023-04-15T12:42:05;10.90;91.40
23497;DHT22;11925;48.122;11.560;2023-04-15T12:44:34;10.90;91.30
23497;DHT22;11925;48.122;11.560;2023-04-15T12:47:03;10.90;91.20
23497;DHT22;11925;48.122;11.560;2023-04-15T12:49:31;10.90;91.20
23497;DHT22;11925;48.122;11.560;2023-04-15T12:52:02;11.00;91.20
23497;DHT22;11925;48.122;11.560;2023-04-15T12:54:31;10.90;90.90
23497;DHT22;11925;48.122;11.560;2023-04-15T12:56:59;11.00;90.60
23497;DHT22;11925;48.122;11.560;2023-04-15T12:59:32;10.90;90.40
23497;DHT22;11925;48.122;11.560;2023-04-15T13:02:01;10.90;90.30
23497;DHT22;11925;48.122;11.560;2023-04-15T13:04:30;10.90;89.30
23497;DHT22;11925;48.122;11.560;2023-04-15T13:06:58;10.90;89.30
23497;DHT22;11925;48.122;11.560;2023-04-15T13:09:28;10.90;89.20
23497;DHT22;11925;48.122;11.560;2023-04-15T13:11:57;11.50;88.70
23497;DHT22;11925;48.122;11.560;2023-04-15T13:14:25;10.90;88.20
23497;DHT22;11925;48.122;11.560;2023-04-15T13:16:54;10.90;88.20
23497;DHT22;11925;48.122;11.560;2023-04-15T13:19:23;10.90;87.80
23497;DHT22;11925;48.122;11.560;2023-04-15T13:21:51;10.90;86.90
23497;DHT22;11925;48.122;11.560;2023-04-15T13:24:19;10.90;86.60
23497;DHT22;11925;48.122;11.560;2023-04-15T13:26:49;10.90;86.60
23497;DHT22;11925;48.122;11.560;2023-04-15T13:29:18;11.00;86.40
23497;DHT22;11925;48.122;11.560;2023-04-15T13:31:46;11.00;86.70
23497;DHT22;11925;48.122;11.560;2023-04-15T13:34:14;10.90;86.60
23497;DHT22;11925;48.122;11.560;2023-04-15T13:36:42;10.90;87.00
23497;DHT22;11925;48.122;11.560;2023-04-15T13:39:11;10.90;87.00
23497;DHT22;11925;48.122;11.560;2023-04-15T13:41:40;10.90;87.30
23497;DHT22;11925;48.122;11.560;2023-04-15T13:44:09;10.90;87.00
23497;DHT22;11925;48.122;11.560;2023-04-15T13:46:39;10.90;87.80
23497;DHT22;11925;48.122;11.560;2023-04-15T13:49:07;10.90;88.40
23497;DHT22;11925;48.122;11.560;2023-04-15T13:51:36;10.80;88.50
23497;DHT22;11925;48.122;11.560;2023-04-15T13:54:04;10.90;88.60
23497;DHT22;11925;48.122;11.560;2023-04-15T13:56:32;10.90;89.30
23497;DHT22;11925;48.122;11.560;2023-04-15T13:59:01;10.90;89.60
23497;DHT22;11925;48.122;11.560;2023-04-15T14:01:31;10.90;89.80
23497;DHT22;11925;48.122;11.560;2023-04-15T14:03:59;10.90;90.20
23497;DHT22;11925;48.122;11.560;2023-04-15T14:06:29;10.90;90.60
23497;DHT22;11925;48.122;11.560;2023-04-15T14:08:58;10.90;90.60
23497;DHT22;11925;48.122;11.560;2023-04-15T14:11:26;10.90;90.50
23497;DHT22;11925;48.122;11.560;2023-04-15T14:13:55;10.90;90.70
23497;DHT22;11925;48.122;11.560;2023-04-15T14:16:24;10.90;90.60
23497;DHT22;11925;48.122;11.560;2023-04-15T14:18:54;10.90;90.50
23497;DHT22;11925;48.122;11.560;2023-04-15T14:21:22;10.90;90.70
23497;DHT22;11925;48.122;11.560;2023-04-15T14:23:50;10.90;90.80
23497;DHT22;11925;48.122;11.560;2023-04-15T14:26:19;10.90;90.60
23497;DHT22;11925;48.122;11.560;2023-04-15T14:28:47;10.90;90.40
23497;DHT22;11925;48.122;11.560;2023-04-15T14:31:16;10.90;90.40
23497;DHT22;11925;48.122;11.560;2023-04-15T14:33:44;10.80;89.30
23497;DHT22;11925;48.122;11.560;2023-04-15T14:36:14;10.90;88.50
23497;DHT22;11925;48.122;11.560;2023-04-15T14:38:42;10.90;88.80
23497;DHT22;11925;48.122;11.560;2023-04-15T14:41:11;10.90;89.20
23497;DHT22;11925;48.122;11.560;2023-04-15T14:43:39;10.80;88.40
23497;DHT22;11925;48.122;11.560;2023-04-15T14:46:07;10.80;89.00
23497;DHT22;11925;48.122;11.560;2023-04-15T14:48:37;10.80;88.00
23497;DHT22;11925;48.122;11.560;2023-04-15T14:51:05;10.80;87.30
23497;DHT22;11925;48.122;11.560;2023-04-15T14:53:35;10.80;87.50
23497;DHT22;11925;48.122;11.560;2023-04-15T14:56:04;10.90;87.00
23497;DHT22;11925;48.122;11.560;2023-04-15T14:58:32;10.80;87.00
23497;DHT22;11925;48.122;11.560;2023-04-15T15:01:01;10.80;87.30
23497;DHT22;11925;48.122;11.560;2023-04-15T15:03:30;10.80;87.10
23497;DHT22;11925;48.122;11.560;2023-04-15T15:05:58;10.80;88.20
23497;DHT22;11925;48.122;11.560;2023-04-15T15:08:27;10.80;87.30
23497;DHT22;11925;48.122;11.560;2023-04-15T15:10:57;10.80;87.50
23497;DHT22;11925;48.122;11.560;2023-04-15T15:13:25;10.80;87.50
23497;DHT22;11925;48.122;11.560;2023-04-15T15:15:53;10.80;88.60
23497;DHT22;11925;48.122;11.560;2023-04-15T15:18:22;10.80;88.70
23497;DHT22;11925;48.122;11.560;2023-04-15T15:20:51;10.90;89.90
23497;DHT22;11925;48.122;11.560;2023-04-15T15:23:19;10.90;90.30
23497;DHT22;11925;48.122;11.560;2023-04-15T15:25:47;10.90;90.90
23497;DHT22;11925;48.122;11.560;2023-04-15T15:28:17;10.90;91.20
23497;DHT22;11925;48.122;11.560;2023-04-15T15:30:47;10.90;91.40
23497;DHT22;11925;48.122;11.560;2023-04-15T15:33:16;10.90;91.90
23497;DHT22;11925;48.122;11.560;2023-04-15T15:35:44;10.80;92.20